Time;durP1;ratioP1;P1;durP2;ratioP2;P2;SDS_P1;SDS_P2;PMS_P1;PMS_P2;Temp;Humidity;BMP_temperature;BMP_pressure;BME280_temperature;BME280_humidity;BME280_pressure;Samples;Min_cycle;Max_cycle;Signal;HPM_P1;HPM_P2
2021/09/25 00:01:06;;;;;;;7.25;5.85;;;16.30;99.90;;;;;;5045712;28;20213;-71
2021/09/25 00:03:31;;;;;;;9.05;6.50;;;16.20;99.90;;;;;;5049199;28;20242;-71
2021/09/25 00:05:57;;;;;;;8.02;5.72;;;16.20;99.90;;;;;;5049907;28;20182;-69
2021/09/25 00:08:23;;;;;;;6.90;5.47;;;16.20;99.90;;;;;;5044540;28;20190;-66
2021/09/25 00:10:48;;;;;;;7.18;5.47;;;16.20;99.90;;;;;;5054992;28;20213;-69
2021/09/25 00:13:14;;;;;;;9.63;6.47;;;16.10;99.90;;;;;;5044124;28;20677;-68
2021/09/25 00:15:40;;;;;;;9.05;5.95;;;16.10;99.90;;;;;;5046134;28;20186;-67
2021/09/25 00:18:06;;;;;;;7.00;5.80;;;16.10;99.90;;;;;;5045275;28;20171;-68
2021/09/25 00:20:35;;;;;;;6.00;5.40;;;16.10;99.90;;;;;;5043043;28;20201;-68
2021/09/25 00:23:02;;;;;;;8.30;5.97;;;16.00;99.90;;;;;;5043329;28;20267;-69
2021/09/25 00:25:28;;;;;;;8.85;6.20;;;16.10;99.90;;;;;;5044935;28;20189;-72
2021/09/25 00:27:55;;;;;;;6.65;5.65;;;16.20;99.90;;;;;;5044709;28;20185;-70
2021/09/25 00:30:21;;;;;;;6.80;5.75;;;16.20;99.90;;;;;;5051495;28;20200;-70
2021/09/25 00:32:47;;;;;;;8.43;6.63;;;16.20;99.90;;;;;;5050701;28;20553;-70
2021/09/25 00:35:13;;;;;;;8.88;6.43;;;16.10;99.90;;;;;;5045530;28;20649;-69
2021/09/25 00:37:40;;;;;;;7.68;5.70;;;16.20;99.90;;;;;;5049244;28;20728;-67
2021/09/25 00:40:07;;;;;;;7.82;5.97;;;16.30;99.90;;;;;;5049726;28;20194;-69
2021/09/25 00:42:33;;;;;;;7.70;5.60;;;16.30;99.90;;;;;;5045931;28;20244;-69
2021/09/25 00:44:59;;;;;;;7.10;5.97;;;16.30;99.90;;;;;;5050025;28;20178;-69
2021/09/25 00:47:25;;;;;;;7.65;5.57;;;16.30;99.90;;;;;;5046097;28;20672;-69
2021/09/25 00:49:50;;;;;;;7.88;6.05;;;16.30;99.90;;;;;;5026694;28;20186;-69
2021/09/25 00:52:16;;;;;;;6.75;5.70;;;16.20;99.90;;;;;;5044173;28;20755;-71
2021/09/25 00:54:41;;;;;;;6.80;5.88;;;16.10;99.90;;;;;;5047441;28;20178;-69
2021/09/25 00:57:08;;;;;;;6.07;5.43;;;16.10;99.90;;;;;;5045597;28;20270;-66
2021/09/25 00:59:34;;;;;;;6.50;5.55;;;16.10;99.90;;;;;;5044405;28;20179;-70
2021/09/25 01:02:00;;;;;;;6.05;5.43;;;16.00;99.90;;;;;;5048781;28;20198;-70
2021/09/25 01:04:25;;;;;;;7.57;5.63;;;16.10;99.90;;;;;;5042436;28;20599;-68
2021/09/25 01:06:51;;;;;;;7.90;6.15;;;16.10;99.90;;;;;;5044249;28;20197;-67
2021/09/25 01:09:17;;;;;;;7.47;5.35;;;16.00;99.90;;;;;;5045644;28;20213;-69
2021/09/25 01:11:43;;;;;;;6.10;5.50;;;16.10;99.90;;;;;;5042798;28;20210;-69
2021/09/25 01:14:09;;;;;;;6.18;5.57;;;16.20;99.90;;;;;;5047259;28;20177;-67
2021/09/25 01:16:35;;;;;;;6.53;5.78;;;16.10;99.90;;;;;;5048521;28;20193;-66
2021/09/25 01:19:01;;;;;;;6.85;5.55;;;16.10;99.90;;;;;;5043874;28;20421;-69
2021/09/25 01:21:27;;;;;;;9.52;5.78;;;16.10;99.90;;;;;;5042635;28;20237;-68
2021/09/25 01:23:53;;;;;;;7.32;5.75;;;16.10;99.90;;;;;;5043594;28;20206;-67
2021/09/25 01:26:24;;;;;;;7.88;6.05;;;16.10;99.90;;;;;;5044255;28;20186;-66
2021/09/25 01:28:50;;;;;;;9.82;6.00;;;16.00;99.90;;;;;;5043007;28;20182;-69
2021/09/25 01:31:17;;;;;;;7.53;5.68;;;16.00;99.90;;;;;;5045402;28;20225;-67
2021/09/25 01:33:46;;;;;;;7.68;6.40;;;16.00;99.90;;;;;;5044115;28;20264;-71
2021/09/25 01:36:13;;;;;;;7.50;6.60;;;16.10;99.90;;;;;;5042433;28;20288;-68
2021/09/25 01:38:40;;;;;;;7.65;6.80;;;16.00;99.90;;;;;;5048714;28;20232;-70
2021/09/25 01:41:06;;;;;;;7.18;6.45;;;16.20;99.90;;;;;;5041199;28;20197;-67
2021/09/25 01:43:32;;;;;;;7.20;6.50;;;16.20;99.90;;;;;;5047361;28;20201;-66
2021/09/25 01:45:59;;;;;;;7.55;6.75;;;16.10;99.90;;;;;;5052885;28;20186;-68
2021/09/25 01:48:26;;;;;;;9.55;6.70;;;16.20;99.90;;;;;;5053141;28;20182;-70
2021/09/25 01:50:52;;;;;;;8.10;7.22;;;16.10;99.90;;;;;;5043821;28;20677;-71
2021/09/25 01:53:21;;;;;;;8.25;7.45;;;16.20;99.90;;;;;;5046431;28;20374;-69
2021/09/25 01:55:47;;;;;;;10.82;7.38;;;16.20;99.90;;;;;;5048049;28;20170;-67
2021/09/25 01:58:13;;;;;;;9.32;7.60;;;16.20;99.90;;;;;;5045718;28;20743;-68
2021/09/25 02:00:39;;;;;;;8.30;7.25;;;16.20;99.90;;;;;;5052700;28;20281;-66
2021/09/25 02:03:07;;;;;;;10.00;7.63;;;16.20;99.90;;;;;;5043642;28;20189;-67
2021/09/25 02:05:33;;;;;;;9.57;7.40;;;16.20;99.90;;;;;;5043557;28;20178;-68
2021/09/25 02:07:59;;;;;;;7.57;6.88;;;16.20;99.90;;;;;;5043235;28;20185;-69
2021/09/25 02:10:26;;;;;;;7.75;6.93;;;16.30;99.90;;;;;;5043226;28;20178;-70
2021/09/25 02:12:52;;;;;;;9.10;7.60;;;16.20;99.90;;;;;;5042100;28;20193;-69
2021/09/25 02:15:17;;;;;;;11.00;8.27;;;16.20;99.90;;;;;;5048766;28;20181;-70
2021/09/25 02:17:43;;;;;;;10.07;7.68;;;16.30;99.90;;;;;;5043078;28;20193;-68
2021/09/25 02:20:10;;;;;;;8.05;7.25;;;16.20;99.90;;;;;;5043085;28;20281;-67
2021/09/25 02:22:36;;;;;;;8.68;7.78;;;16.20;99.90;;;;;;5047591;28;20240;-69
2021/09/25 02:25:04;;;;;;;11.00;7.90;;;16.30;99.90;;;;;;5044645;28;20193;-67
2021/09/25 02:27:30;;;;;;;9.07;8.18;;;16.30;99.90;;;;;;5043340;28;20193;-68
2021/09/25 02:29:55;;;;;;;9.30;8.20;;;16.20;99.90;;;;;;5042755;28;20213;-68
2021/09/25 02:32:21;;;;;;;10.23;8.77;;;16.30;99.90;;;;;;5042416;28;20229;-68
2021/09/25 02:34:46;;;;;;;9.85;8.70;;;16.30;99.90;;;;;;5046128;28;20641;-70
2021/09/25 02:37:12;;;;;;;8.73;7.82;;;16.30;99.90;;;;;;5045012;28;20178;-68
2021/09/25 02:39:37;;;;;;;9.52;8.63;;;16.20;99.90;;;;;;5042943;28;20178;-70
2021/09/25 02:42:03;;;;;;;10.43;8.75;;;16.30;99.90;;;;;;5042725;28;20206;-66
2021/09/25 02:44:29;;;;;;;9.77;8.25;;;16.20;99.90;;;;;;5045774;28;20186;-67
2021/09/25 02:46:55;;;;;;;10.02;8.88;;;16.30;99.90;;;;;;5056797;28;20597;-70
2021/09/25 02:49:22;;;;;;;11.27;9.05;;;16.30;99.90;;;;;;5049342;28;20201;-69
2021/09/25 02:51:49;;;;;;;8.88;8.00;;;16.20;99.90;;;;;;5046096;28;20544;-68
2021/09/25 02:54:15;;;;;;;11.43;8.63;;;16.20;99.90;;;;;;5051328;28;20194;-69
2021/09/25 02:56:40;;;;;;;9.77;8.93;;;16.30;99.90;;;;;;5046985;28;20182;-69
2021/09/25 02:59:06;;;;;;;9.98;8.98;;;16.30;99.90;;;;;;5046891;28;20236;-68
2021/09/25 03:01:32;;;;;;;10.43;9.25;;;16.30;99.90;;;;;;5059282;28;20693;-70
2021/09/25 03:03:58;;;;;;;9.52;8.63;;;16.30;99.90;;;;;;5051580;28;20186;-71
2021/09/25 03:06:25;;;;;;;9.40;8.43;;;16.30;99.90;;;;;;5035317;28;20210;-69
2021/09/25 03:08:51;;;;;;;9.00;8.15;;;16.30;99.90;;;;;;5046698;28;20186;-70
2021/09/25 03:11:17;;;;;;;9.35;8.55;;;16.30;99.90;;;;;;5044705;28;20256;-69
2021/09/25 03:13:43;;;;;;;9.75;8.85;;;16.20;99.90;;;;;;5048182;28;20486;-68
2021/09/25 03:16:09;;;;;;;10.23;9.23;;;16.20;99.90;;;;;;5050192;28;20178;-68
2021/09/25 03:18:35;;;;;;;10.48;9.57;;;16.20;99.90;;;;;;5046867;28;20227;-69
2021/09/25 03:21:01;;;;;;;11.15;9.50;;;16.10;99.90;;;;;;5056554;28;20268;-68
2021/09/25 03:23:26;;;;;;;11.07;10.07;;;16.10;99.90;;;;;;5045628;28;20182;-71
2021/09/25 03:25:52;;;;;;;10.07;9.18;;;16.10;99.90;;;;;;5048351;28;20343;-68
2021/09/25 03:28:18;;;;;;;10.38;9.48;;;16.00;99.90;;;;;;5046111;28;20186;-70
2021/09/25 03:30:44;;;;;;;10.98;9.95;;;16.10;99.90;;;;;;5028093;28;20218;-68
2021/09/25 03:33:10;;;;;;;10.13;9.23;;;16.10;99.90;;;;;;5045264;28;20174;-70
2021/09/25 03:35:36;;;;;;;11.43;10.23;;;16.10;99.90;;;;;;5050898;28;20182;-68
2021/09/25 03:38:02;;;;;;;11.05;9.95;;;16.10;99.90;;;;;;5045899;28;20188;-67
2021/09/25 03:40:28;;;;;;;11.40;10.27;;;16.10;99.90;;;;;;5048973;28;20201;-66
2021/09/25 03:42:54;;;;;;;10.93;9.82;;;16.10;99.90;;;;;;5045287;28;20169;-70
2021/09/25 03:45:20;;;;;;;11.00;10.00;;;16.10;99.90;;;;;;5045836;28;20240;-71
2021/09/25 03:47:45;;;;;;;11.38;10.27;;;16.00;99.90;;;;;;5049631;28;20752;-69
2021/09/25 03:50:12;;;;;;;10.80;9.70;;;16.10;99.90;;;;;;5039901;28;20192;-71
2021/09/25 03:52:38;;;;;;;10.88;9.77;;;16.00;99.90;;;;;;5046947;28;20570;-69
2021/09/25 03:55:08;;;;;;;11.07;10.07;;;16.00;99.90;;;;;;5046140;28;20182;-71
2021/09/25 03:57:34;;;;;;;10.65;9.57;;;16.00;99.90;;;;;;5054226;28;20265;-69
2021/09/25 04:00:00;;;;;;;11.43;10.43;;;16.10;99.90;;;;;;5049948;28;20598;-71
2021/09/25 04:02:26;;;;;;;10.85;9.75;;;16.10;99.90;;;;;;5044877;28;20202;-66
2021/09/25 04:04:51;;;;;;;11.40;10.30;;;16.00;99.90;;;;;;5050942;28;20698;-68
2021/09/25 04:07:17;;;;;;;10.73;9.70;;;16.00;99.90;;;;;;5055002;28;20189;-70
2021/09/25 04:09:43;;;;;;;9.95;9.02;;;16.00;99.90;;;;;;5046263;28;20174;-69
2021/09/25 04:12:09;;;;;;;11.40;10.18;;;16.00;99.90;;;;;;5050446;28;20220;-67
2021/09/25 04:14:34;;;;;;;10.88;9.77;;;16.00;99.90;;;;;;5053646;28;20186;-68
2021/09/25 04:17:00;;;;;;;10.93;9.93;;;16.00;99.90;;;;;;5051547;28;20261;-70
2021/09/25 04:19:26;;;;;;;10.65;9.55;;;16.00;99.90;;;;;;5049342;28;20178;-70
2021/09/25 04:21:52;;;;;;;10.98;9.98;;;16.00;99.90;;;;;;5049487;28;20194;-69
2021/09/25 04:24:18;;;;;;;10.85;9.85;;;16.00;99.90;;;;;;5051315;28;21168;-67
2021/09/25 04:26:44;;;;;;;10.90;9.80;;;16.00;99.90;;;;;;5049675;28;20190;-70
2021/09/25 04:29:09;;;;;;;10.40;9.30;;;16.10;99.90;;;;;;5051790;28;20181;-66
2021/09/25 04:31:35;;;;;;;10.48;9.48;;;16.10;99.90;;;;;;5050705;28;20388;-70
2021/09/25 04:34:02;;;;;;;10.75;9.75;;;16.10;99.90;;;;;;5056149;28;20185;-69
2021/09/25 04:36:28;;;;;;;11.57;10.40;;;16.10;99.90;;;;;;5048070;28;20673;-69
2021/09/25 04:38:54;;;;;;;11.55;10.38;;;16.10;99.90;;;;;;5051965;28;20243;-71
2021/09/25 04:41:20;;;;;;;11.35;9.93;;;16.00;99.90;;;;;;5032347;28;20245;-69
2021/09/25 04:43:45;;;;;;;10.52;9.52;;;16.00;99.90;;;;;;5050100;28;20210;-67
2021/09/25 04:46:11;;;;;;;12.02;9.95;;;16.00;99.90;;;;;;5049287;28;20669;-70
2021/09/25 04:48:37;;;;;;;11.48;10.27;;;15.90;99.90;;;;;;5045665;28;20193;-68
2021/09/25 04:51:03;;;;;;;10.88;9.88;;;15.90;99.90;;;;;;5056304;28;20209;-69
2021/09/25 04:53:30;;;;;;;11.05;9.82;;;16.00;99.90;;;;;;5054267;28;20174;-67
2021/09/25 04:55:57;;;;;;;11.38;10.23;;;16.00;99.90;;;;;;5052454;28;20634;-69
2021/09/25 04:58:28;;;;;;;12.45;10.77;;;16.00;99.90;;;;;;5051568;28;20185;-68
2021/09/25 05:00:57;;;;;;;10.85;9.85;;;16.10;99.90;;;;;;5055434;28;20201;-70
2021/09/25 05:03:23;;;;;;;10.77;9.77;;;16.10;99.90;;;;;;5052305;28;20269;-69
2021/09/25 05:05:49;;;;;;;10.48;9.45;;;16.10;99.90;;;;;;5033517;28;20304;-67
2021/09/25 05:08:14;;;;;;;10.43;9.52;;;16.10;99.90;;;;;;5032627;28;20232;-66
2021/09/25 05:10:40;;;;;;;11.20;10.02;;;16.10;99.90;;;;;;5046145;28;20264;-68
2021/09/25 05:13:05;;;;;;;11.38;10.18;;;16.20;99.90;;;;;;5051226;28;20235;-67
2021/09/25 05:15:31;;;;;;;11.00;9.90;;;16.10;99.90;;;;;;5054020;28;20638;-67
2021/09/25 05:17:57;;;;;;;10.07;9.07;;;16.20;99.90;;;;;;5038001;28;20200;-69
2021/09/25 05:20:22;;;;;;;11.10;9.98;;;16.20;99.90;;;;;;5047693;28;20178;-68
2021/09/25 05:22:48;;;;;;;10.90;9.80;;;16.20;99.90;;;;;;5047193;28;20189;-70
2021/09/25 05:25:14;;;;;;;10.82;9.73;;;16.20;99.90;;;;;;5043654;28;20593;-69
2021/09/25 05:27:40;;;;;;;12.60;10.80;;;16.30;99.90;;;;;;5049791;28;20186;-68
2021/09/25 05:30:07;;;;;;;10.82;9.73;;;16.20;99.90;;;;;;5043760;28;20555;-69
2021/09/25 05:32:33;;;;;;;11.48;9.45;;;16.20;99.90;;;;;;5042867;28;20312;-69
2021/09/25 05:34:58;;;;;;;10.40;9.40;;;16.20;99.90;;;;;;5050137;28;20257;-68
2021/09/25 05:37:24;;;;;;;9.90;9.00;;;16.20;99.90;;;;;;5043634;28;20649;-69
2021/09/25 05:39:54;;;;;;;9.77;8.88;;;16.20;99.90;;;;;;5047786;28;20712;-68
2021/09/25 05:42:21;;;;;;;10.23;9.07;;;16.20;99.90;;;;;;5045485;28;20562;-70
2021/09/25 05:44:47;;;;;;;10.18;9.15;;;16.30;99.90;;;;;;5047707;28;20270;-70
2021/09/25 05:47:13;;;;;;;11.45;8.45;;;16.30;99.90;;;;;;5043597;28;20792;-69
2021/09/25 05:49:39;;;;;;;9.98;9.05;;;16.20;99.90;;;;;;5043715;28;20179;-69
2021/09/25 05:52:08;;;;;;;10.27;9.13;;;16.30;99.90;;;;;;5033040;28;20732;-71
2021/09/25 05:54:34;;;;;;;12.23;8.68;;;16.30;99.90;;;;;;5043757;28;20178;-67
2021/09/25 05:57:00;;;;;;;9.82;8.82;;;16.40;99.90;;;;;;5045097;28;20273;-67
2021/09/25 05:59:25;;;;;;;10.77;9.68;;;16.40;99.90;;;;;;5025195;28;20182;-68
2021/09/25 06:01:51;;;;;;;10.32;9.32;;;16.40;99.90;;;;;;5042740;28;20205;-68
2021/09/25 06:04:16;;;;;;;10.80;9.60;;;16.40;99.90;;;;;;5043321;28;20208;-69
2021/09/25 06:06:42;;;;;;;10.35;9.35;;;16.40;99.90;;;;;;5044035;28;20436;-70
2021/09/25 06:09:07;;;;;;;11.38;9.98;;;16.40;99.90;;;;;;5043261;28;20240;-69
2021/09/25 06:11:33;;;;;;;10.85;9.32;;;16.50;99.90;;;;;;5046710;28;20221;-70
2021/09/25 06:13:59;;;;;;;12.35;9.90;;;16.40;99.90;;;;;;5043406;28;20695;-69
2021/09/25 06:16:24;;;;;;;10.82;9.73;;;16.40;99.90;;;;;;5043524;28;20266;-69
2021/09/25 06:18:50;;;;;;;11.15;10.05;;;16.40;99.90;;;;;;5047092;28;20190;-69
2021/09/25 06:21:15;;;;;;;11.52;10.32;;;16.50;99.90;;;;;;5049652;28;20213;-69
2021/09/25 06:23:41;;;;;;;11.18;9.85;;;16.50;99.90;;;;;;5049098;28;20319;-68
2021/09/25 06:26:08;;;;;;;12.73;10.15;;;16.50;99.90;;;;;;5051313;28;20466;-66
2021/09/25 06:28:34;;;;;;;11.45;10.35;;;16.60;99.90;;;;;;5050225;28;20182;-69
2021/09/25 06:31:00;;;;;;;10.60;9.45;;;16.60;99.90;;;;;;5050107;28;20224;-67
2021/09/25 06:33:25;;;;;;;11.38;10.05;;;16.60;99.90;;;;;;5049437;28;20178;-68
2021/09/25 06:35:53;;;;;;;11.35;10.25;;;16.60;99.90;;;;;;5052885;28;20552;-68
2021/09/25 06:38:19;;;;;;;11.57;10.38;;;16.60;99.90;;;;;;5049963;28;20181;-68
2021/09/25 06:40:45;;;;;;;11.05;9.85;;;16.60;99.90;;;;;;5056676;28;20240;-67
2021/09/25 06:43:10;;;;;;;11.73;10.25;;;16.60;99.90;;;;;;5050715;28;20178;-68
2021/09/25 06:45:38;;;;;;;10.65;9.65;;;16.70;99.90;;;;;;5055507;28;20181;-67
2021/09/25 06:48:05;;;;;;;11.25;10.18;;;16.70;99.90;;;;;;5049858;28;20600;-68
2021/09/25 06:50:31;;;;;;;11.65;10.45;;;16.70;99.90;;;;;;5056016;28;20428;-69
2021/09/25 06:52:57;;;;;;;10.48;9.48;;;16.70;99.90;;;;;;5058739;28;20603;-69
2021/09/25 06:55:23;;;;;;;10.57;9.48;;;16.70;99.90;;;;;;5049744;28;20277;-69
2021/09/25 06:57:49;;;;;;;10.70;9.65;;;16.70;99.90;;;;;;5049549;28;20188;-70
2021/09/25 07:00:15;;;;;;;11.40;9.10;;;16.70;99.90;;;;;;5053869;28;20181;-66
2021/09/25 07:02:41;;;;;;;10.25;9.20;;;16.90;99.90;;;;;;5048679;28;20196;-70
2021/09/25 07:05:08;;;;;;;10.52;9.52;;;16.90;99.90;;;;;;5049535;28;20186;-66
2021/09/25 07:07:34;;;;;;;10.15;9.13;;;16.90;99.90;;;;;;5049504;28;20186;-69
2021/09/25 07:10:00;;;;;;;10.25;9.18;;;16.90;99.90;;;;;;5049436;28;20884;-69
2021/09/25 07:12:26;;;;;;;10.13;9.18;;;17.00;99.90;;;;;;5048763;28;20325;-68
2021/09/25 07:14:53;;;;;;;9.40;8.50;;;17.00;99.90;;;;;;5057423;28;20613;-69
2021/09/25 07:17:18;;;;;;;10.95;9.10;;;17.00;99.90;;;;;;5050534;28;20178;-67
2021/09/25 07:19:44;;;;;;;8.95;8.02;;;17.00;99.90;;;;;;5053279;28;20603;-67
2021/09/25 07:22:10;;;;;;;10.38;7.85;;;17.10;99.90;;;;;;5050321;28;20290;-68
2021/09/25 07:24:36;;;;;;;8.98;8.07;;;17.10;99.90;;;;;;5051932;28;20186;-69
2021/09/25 07:27:02;;;;;;;8.40;7.60;;;17.20;99.90;;;;;;5057113;28;20695;-71
2021/09/25 07:29:28;;;;;;;7.68;6.93;;;17.10;99.90;;;;;;5053816;28;21039;-70
2021/09/25 07:31:53;;;;;;;8.23;7.43;;;17.10;99.90;;;;;;5045227;28;20217;-68
2021/09/25 07:34:19;;;;;;;8.07;6.20;;;17.20;99.90;;;;;;5046160;28;20220;-66
2021/09/25 07:36:45;;;;;;;7.72;6.40;;;17.30;99.90;;;;;;5048227;28;20634;-67
2021/09/25 07:39:11;;;;;;;6.95;6.22;;;17.30;99.90;;;;;;5049157;28;20182;-70
2021/09/25 07:41:37;;;;;;;6.88;6.28;;;17.30;99.90;;;;;;5036904;28;20546;-69
2021/09/25 07:44:04;;;;;;;8.70;6.63;;;17.40;99.90;;;;;;5046215;28;20530;-68
2021/09/25 07:46:30;;;;;;;8.52;6.10;;;17.40;99.90;;;;;;5050109;28;20178;-69
2021/09/25 07:48:56;;;;;;;6.85;6.15;;;17.50;99.90;;;;;;5052426;28;20182;-70
2021/09/25 07:51:21;;;;;;;7.97;6.07;;;17.50;99.90;;;;;;5047791;28;20703;-66
2021/09/25 07:53:47;;;;;;;5.78;5.15;;;17.60;99.90;;;;;;5047885;28;20388;-69
2021/09/25 07:56:12;;;;;;;5.25;4.75;;;17.60;99.90;;;;;;5047461;28;20638;-69
2021/09/25 07:58:38;;;;;;;5.78;5.03;;;17.50;99.90;;;;;;5047534;28;20185;-67
2021/09/25 08:01:04;;;;;;;5.40;4.80;;;17.50;99.90;;;;;;5045425;28;20564;-70
2021/09/25 08:03:30;;;;;;;5.18;4.68;;;17.50;99.90;;;;;;5044817;28;20725;-67
2021/09/25 08:05:56;;;;;;;5.75;5.10;;;17.50;99.90;;;;;;5046605;28;20286;-67
2021/09/25 08:08:22;;;;;;;5.28;4.53;;;17.50;99.90;;;;;;5045448;28;20188;-71
2021/09/25 08:10:47;;;;;;;4.70;4.30;;;17.50;99.90;;;;;;5046809;28;20229;-68
2021/09/25 08:13:13;;;;;;;5.50;4.30;;;17.60;99.90;;;;;;5054517;28;20260;-70
2021/09/25 08:15:40;;;;;;;4.20;3.67;;;17.70;99.90;;;;;;5037037;28;20214;-68
2021/09/25 08:18:06;;;;;;;3.75;3.35;;;17.70;99.90;;;;;;5047935;28;20180;-69
2021/09/25 08:20:32;;;;;;;4.43;3.80;;;17.80;99.90;;;;;;5045017;28;20743;-67
2021/09/25 08:22:58;;;;;;;3.92;3.50;;;17.90;99.90;;;;;;5046145;28;20269;-67
2021/09/25 08:25:24;;;;;;;4.68;3.30;;;18.00;99.90;;;;;;5044026;28;20607;-68
2021/09/25 08:27:51;;;;;;;3.40;3.08;;;18.10;99.90;;;;;;5045159;28;20580;-67
2021/09/25 08:30:17;;;;;;;4.57;3.05;;;18.10;99.90;;;;;;5050484;28;20224;-68
2021/09/25 08:32:43;;;;;;;4.15;3.10;;;18.30;99.90;;;;;;5049990;28;20234;-69
2021/09/25 08:35:09;;;;;;;3.15;2.85;;;18.30;99.90;;;;;;5046216;28;20182;-69
2021/09/25 08:37:35;;;;;;;2.90;2.60;;;18.30;99.90;;;;;;5052074;28;20174;-69
2021/09/25 08:40:03;;;;;;;3.08;2.55;;;18.40;99.90;;;;;;5044595;28;20867;-70
2021/09/25 08:42:28;;;;;;;3.00;2.63;;;18.50;99.90;;;;;;5028943;28;20273;-70
2021/09/25 08:44:55;;;;;;;5.03;2.90;;;18.70;99.90;;;;;;5044630;28;20182;-69
2021/09/25 08:47:21;;;;;;;3.75;2.67;;;18.80;99.90;;;;;;5044843;28;20797;-68
2021/09/25 08:49:48;;;;;;;2.72;2.53;;;18.90;99.90;;;;;;5045856;28;20183;-71
2021/09/25 08:52:14;;;;;;;2.72;2.25;;;18.90;99.90;;;;;;5043807;28;20477;-67
2021/09/25 08:54:40;;;;;;;3.65;2.47;;;18.90;99.90;;;;;;5044784;28;20261;-68
2021/09/25 08:57:06;;;;;;;4.40;2.88;;;18.80;99.90;;;;;;5044372;28;20596;-71
2021/09/25 08:59:32;;;;;;;4.35;2.10;;;18.90;99.90;;;;;;5044599;28;20304;-68
2021/09/25 09:02:10;;;;;;;2.80;2.22;;;18.80;99.90;;;;;;5043665;28;20206;-69
2021/09/25 09:05:02;;;;;;;2.83;2.50;;;18.80;99.90;;;;;;5047196;28;20209;-68
2021/09/25 09:07:29;;;;;;;3.15;2.30;;;18.90;99.90;;;;;;5040258;28;20189;-67
2021/09/25 09:09:56;;;;;;;3.05;2.17;;;18.90;99.90;;;;;;5044110;28;20183;-70
2021/09/25 09:12:27;;;;;;;2.45;2.05;;;18.90;99.90;;;;;;5051303;28;20222;-72
2021/09/25 09:14:54;;;;;;;2.63;2.20;;;18.90;99.90;;;;;;5048530;28;20289;-67
2021/09/25 09:17:30;;;;;;;2.28;2.08;;;19.00;99.90;;;;;;5044343;28;20228;-69
2021/09/25 09:19:56;;;;;;;2.25;1.95;;;19.20;99.90;;;;;;5047736;28;20184;-70
2021/09/25 09:22:23;;;;;;;3.40;2.13;;;19.40;99.90;;;;;;5049530;28;20458;-66
2021/09/25 09:24:53;;;;;;;3.65;2.28;;;19.50;99.90;;;;;;5048882;28;20209;-69
2021/09/25 09:27:23;;;;;;;3.80;2.05;;;19.60;99.90;;;;;;5046232;28;20217;-69
2021/09/25 09:29:49;;;;;;;3.35;2.10;;;19.60;99.90;;;;;;5049012;28;20182;-67
2021/09/25 09:32:17;;;;;;;2.80;2.10;;;19.50;99.90;;;;;;5049304;28;20222;-68
2021/09/25 09:34:43;;;;;;;3.67;2.35;;;19.60;99.90;;;;;;5043704;28;20196;-68
2021/09/25 09:37:18;;;;;;;2.63;2.30;;;19.60;99.90;;;;;;5056369;28;20177;-68
2021/09/25 09:39:57;;;;;;;2.42;2.10;;;19.70;99.90;;;;;;5045661;28;20932;-69
2021/09/25 09:42:23;;;;;;;3.05;2.28;;;19.60;99.90;;;;;;5046747;28;20892;-65
2021/09/25 09:44:51;;;;;;;5.10;2.50;;;19.60;99.90;;;;;;5043811;28;20179;-69
2021/09/25 09:47:21;;;;;;;2.70;2.10;;;19.80;99.90;;;;;;5043741;28;20193;-69
2021/09/25 09:49:55;;;;;;;2.55;2.35;;;19.80;99.90;;;;;;5043650;28;20182;-69
2021/09/25 09:52:21;;;;;;;2.60;2.00;;;19.80;99.90;;;;;;5042739;28;20237;-68
2021/09/25 09:54:47;;;;;;;3.88;2.10;;;19.90;99.90;;;;;;5043165;28;20186;-66
2021/09/25 09:57:19;;;;;;;3.08;2.33;;;20.00;99.90;;;;;;5043408;28;20182;-65
2021/09/25 09:59:47;;;;;;;4.38;2.60;;;20.10;99.90;;;;;;5048026;28;20180;-66
2021/09/25 10:02:14;;;;;;;2.83;2.63;;;20.30;99.90;;;;;;5052351;28;20209;-67
2021/09/25 10:04:40;;;;;;;4.63;2.80;;;20.40;99.90;;;;;;5043673;28;20182;-69
2021/09/25 10:07:07;;;;;;;2.65;2.25;;;20.60;99.90;;;;;;5043691;28;20185;-70
2021/09/25 10:09:37;;;;;;;3.30;2.42;;;20.50;99.90;;;;;;5043484;28;20684;-70
2021/09/25 10:12:15;;;;;;;3.33;2.33;;;20.70;99.90;;;;;;5051644;28;20209;-69
2021/09/25 10:14:43;;;;;;;3.83;2.25;;;20.70;99.90;;;;;;5046246;28;20212;-65
2021/09/25 10:17:11;;;;;;;3.10;2.63;;;20.80;99.90;;;;;;5043437;28;20203;-69
2021/09/25 10:19:40;;;;;;;3.60;2.53;;;20.80;99.90;;;;;;5034431;28;20843;-66
2021/09/25 10:22:19;;;;;;;3.28;2.00;;;20.90;99.90;;;;;;5043813;28;20198;-67
2021/09/25 10:24:52;;;;;;;3.85;2.38;;;21.10;99.90;;;;;;5044683;28;20541;-68
2021/09/25 10:27:18;;;;;;;3.25;2.42;;;21.10;99.90;;;;;;5042506;28;20668;-70
2021/09/25 10:29:47;;;;;;;2.30;1.88;;;21.10;99.90;;;;;;5047047;28;20189;-67
2021/09/25 10:32:24;;;;;;;2.60;2.25;;;21.20;99.90;;;;;;5048573;28;20225;-68
2021/09/25 10:35:21;;;;;;;2.50;2.30;;;21.30;99.90;;;;;;5047753;28;20184;-68
2021/09/25 10:37:55;;;;;;;2.55;2.35;;;21.50;99.90;;;;;;5046579;28;20185;-69
2021/09/25 10:40:26;;;;;;;2.60;2.38;;;21.60;99.90;;;;;;5046689;28;20177;-67
2021/09/25 10:42:57;;;;;;;3.15;2.15;;;21.40;99.90;;;;;;5045966;28;20613;-68
2021/09/25 10:45:25;;;;;;;2.80;2.15;;;21.30;99.90;;;;;;5042146;28;20593;-67
2021/09/25 10:48:14;;;;;;;3.05;2.22;;;21.40;99.90;;;;;;5042471;28;20178;-67
2021/09/25 10:51:08;;;;;;;4.50;2.50;;;21.40;99.90;;;;;;5032595;28;20202;-68
2021/09/25 10:53:37;;;;;;;3.65;1.98;;;21.40;99.90;;;;;;5041840;28;20180;-69
2021/09/25 10:56:26;;;;;;;2.38;2.17;;;21.60;99.90;;;;;;5045329;28;20249;-68
2021/09/25 10:59:05;;;;;;;2.97;2.70;;;21.60;99.90;;;;;;5030900;28;20612;-66
2021/09/25 11:01:37;;;;;;;2.58;2.17;;;21.50;99.90;;;;;;5057205;28;20630;-67
2021/09/25 11:04:19;;;;;;;3.17;2.35;;;21.10;99.90;;;;;;5054624;28;20919;-68
2021/09/25 11:06:55;;;;;;;3.25;2.38;;;21.00;99.90;;;;;;5050844;28;20384;-70
2021/09/25 11:09:31;;;;;;;3.05;2.50;;;21.10;99.90;;;;;;5052634;28;20173;-67
2021/09/25 11:12:04;;;;;;;2.40;2.20;;;21.20;99.90;;;;;;5045275;28;20289;-67
2021/09/25 11:14:32;;;;;;;2.35;2.10;;;21.50;99.90;;;;;;5056027;28;20185;-68
2021/09/25 11:16:59;;;;;;;2.17;1.98;;;21.70;99.90;;;;;;5046155;28;20178;-69
2021/09/25 11:19:25;;;;;;;2.78;2.40;;;21.80;99.90;;;;;;5045574;28;20630;-67
2021/09/25 11:22:00;;;;;;;4.25;2.60;;;22.00;99.90;;;;;;5046465;28;20292;-69
2021/09/25 11:24:28;;;;;;;5.75;2.75;;;21.90;99.90;;;;;;5045190;28;20187;-71
2021/09/25 11:26:53;;;;;;;4.70;2.40;;;22.00;99.90;;;;;;5047947;28;20263;-67
2021/09/25 11:29:19;;;;;;;2.63;1.80;;;22.00;99.90;;;;;;5047879;28;20645;-67
2021/09/25 11:31:49;;;;;;;3.95;3.15;;;22.10;99.90;;;;;;5050397;28;20271;-67
2021/09/25 11:34:21;;;;;;;2.88;2.28;;;22.10;99.90;;;;;;5045446;28;20225;-66
2021/09/25 11:36:58;;;;;;;3.05;2.10;;;22.20;99.90;;;;;;5045447;28;20265;-71
2021/09/25 11:39:42;;;;;;;2.88;2.08;;;22.30;99.90;;;;;;5051378;28;20265;-66
2021/09/25 11:42:17;;;;;;;2.38;2.17;;;22.50;99.90;;;;;;5044832;28;20198;-67
2021/09/25 11:44:57;;;;;;;2.33;2.05;;;22.70;99.90;;;;;;5050625;28;20659;-70
2021/09/25 11:47:36;;;;;;;3.03;2.67;;;23.00;99.90;;;;;;5035759;28;20590;-66
2021/09/25 11:50:14;;;;;;;4.43;3.17;;;23.00;99.90;;;;;;5045124;28;20234;-69
2021/09/25 11:52:41;;;;;;;3.28;2.97;;;23.00;99.90;;;;;;5048220;28;20205;-70
2021/09/25 11:55:08;;;;;;;2.85;2.58;;;23.00;99.90;;;;;;5052085;28;20178;-67
2021/09/25 11:57:34;;;;;;;3.53;2.13;;;23.00;99.90;;;;;;5049493;28;20931;-68
2021/09/25 12:00:00;;;;;;;2.78;2.50;;;23.00;99.90;;;;;;5045136;28;20174;-68
2021/09/25 12:02:56;;;;;;;2.90;2.30;;;23.10;99.90;;;;;;5048785;28;20198;-70
2021/09/25 12:05:40;;;;;;;3.58;2.33;;;22.90;99.90;;;;;;5034129;28;20194;-69
2021/09/25 12:08:08;;;;;;;3.33;2.50;;;22.80;99.90;;;;;;5045666;28;20178;-69
2021/09/25 12:10:35;;;;;;;6.15;2.65;;;22.70;99.90;;;;;;5045304;28;20204;-69
2021/09/25 12:13:10;;;;;;;4.50;2.60;;;22.50;99.90;;;;;;5044548;28;20202;-68
2021/09/25 12:15:42;;;;;;;5.32;2.40;;;22.60;99.90;;;;;;5044649;28;20178;-66
2021/09/25 12:18:12;;;;;;;3.17;2.88;;;22.60;99.90;;;;;;5046931;28;20247;-68
2021/09/25 12:20:41;;;;;;;4.95;2.72;;;22.60;99.90;;;;;;5044907;28;20768;-67
2021/09/25 12:23:08;;;;;;;4.63;2.70;;;22.50;99.90;;;;;;5044698;28;20204;-68
2021/09/25 12:25:38;;;;;;;2.50;2.30;;;22.40;99.90;;;;;;5047480;28;20194;-68
2021/09/25 12:28:26;;;;;;;2.25;2.05;;;22.50;99.90;;;;;;5054240;28;20193;-67
2021/09/25 12:30:58;;;;;;;5.50;2.60;;;22.50;99.90;;;;;;5047872;28;20216;-68
2021/09/25 12:33:25;;;;;;;3.30;2.70;;;22.40;99.90;;;;;;5044666;28;20173;-68
2021/09/25 12:36:10;;;;;;;3.72;2.40;;;22.20;99.90;;;;;;5054845;28;20235;-69
2021/09/25 12:38:40;;;;;;;4.30;2.25;;;22.40;99.90;;;;;;5045107;28;20257;-70
2021/09/25 12:41:15;;;;;;;3.65;2.42;;;22.40;99.90;;;;;;5044756;28;20217;-72
2021/09/25 12:43:44;;;;;;;3.75;2.67;;;22.40;99.90;;;;;;5046751;28;20185;-68
2021/09/25 12:46:33;;;;;;;3.05;2.35;;;22.20;99.90;;;;;;5029086;28;20627;-69